LEBZ

Badajoz Airport

Badajoz, Spain
TAF LEBZ 241700Z 2418/2518 28003KT CAVOK TX37/2515Z TN18/2506Z
Issued Valid From Valid To
Sep-24 @ 17:00 UTC
(6 hours ago)
Sep-24 @ 18:00 UTC
(5 hours ago)
Sep-25 @ 18:00 UTC
(in 19 hours)
Sep-24 @ 18:00 to Sep-25 @ 18:00
TAF LEBZ 241700Z 2418/2518 28003KT CAVOK TX37/2515Z TN18/2506Z
Wind Visibility Clouds
280° at 3 knots 10,000+ meters
  • No significant clouds
TAF LEBZ 241700Z 2418/2518 28003KT CAVOK TX37/2515Z TN18/2506Z
Issued Sep-24 @ 17:00 UTC
(6 hours ago)
Valid From Sep-24 @ 18:00 UTC
(5 hours ago)
Valid To Sep-25 @ 18:00 UTC
(in 19 hours)
Sep-24 @ 18:00 - Sep-25 @ 18:00
Wind Visibility
280° at 3 knots 10,000+ meters
Clouds
  • No significant clouds